createdAt,value
2023-06-27T00:00:25.654Z,95147.00
2023-06-27T00:01:25.742Z,95140.00
2023-06-27T00:02:25.857Z,95140.00
2023-06-27T00:03:26.031Z,95140.00
2023-06-27T00:04:25.883Z,95149.00
2023-06-27T00:05:25.905Z,95140.00
2023-06-27T00:06:25.936Z,95147.00
2023-06-27T00:07:26.050Z,95140.00
2023-06-27T00:08:26.125Z,95147.00
2023-06-27T00:09:26.152Z,95151.00
2023-06-27T00:10:26.338Z,95151.00
2023-06-27T00:11:26.886Z,95153.00
2023-06-27T00:12:26.336Z,95155.00
2023-06-27T00:13:26.360Z,95153.00
2023-06-27T00:14:26.403Z,95157.00
2023-06-27T00:15:26.449Z,95153.00
2023-06-27T00:16:26.494Z,95155.00
2023-06-27T00:17:26.608Z,95157.00
2023-06-27T00:18:26.558Z,95161.00
2023-06-27T00:19:26.607Z,95161.00
2023-06-27T00:20:26.633Z,95159.00
2023-06-27T00:21:26.672Z,95161.00
2023-06-27T00:22:26.723Z,95157.00
2023-06-27T00:23:26.805Z,95157.00
2023-06-27T00:24:26.853Z,95159.00
2023-06-27T00:25:26.909Z,95157.00
2023-06-27T00:26:26.954Z,95161.00
2023-06-27T00:27:27.066Z,95163.00
2023-06-27T00:28:27.103Z,95165.00
2023-06-27T00:29:27.191Z,95165.00
2023-06-27T00:30:27.230Z,95165.00
2023-06-27T00:31:27.391Z,95161.00
2023-06-27T00:32:27.299Z,95161.00
2023-06-27T00:33:27.254Z,95163.00
2023-06-27T00:34:27.281Z,95165.00
2023-06-27T00:35:27.354Z,95165.00
2023-06-27T00:36:27.403Z,95171.00
2023-06-27T00:37:27.443Z,95171.00
2023-06-27T00:38:27.478Z,95171.00
2023-06-27T00:39:27.572Z,95171.00
2023-06-27T00:40:27.679Z,95173.00
2023-06-27T00:41:27.691Z,95177.00
2023-06-27T00:42:27.713Z,95177.00
2023-06-27T00:43:27.971Z,95177.00
2023-06-27T00:44:27.812Z,95179.00
2023-06-27T00:45:27.878Z,95177.00
2023-06-27T00:46:27.906Z,95177.00
2023-06-27T00:47:27.978Z,95177.00
2023-06-27T00:48:27.955Z,95177.00
2023-06-27T00:49:27.972Z,95175.00
2023-06-27T00:50:27.991Z,95181.00
2023-06-27T00:51:28.060Z,95181.00
2023-06-27T00:52:28.098Z,95181.00
2023-06-27T00:53:28.176Z,95181.00
2023-06-27T00:54:28.202Z,95181.00
2023-06-27T00:55:28.233Z,95179.00
2023-06-27T00:56:28.249Z,95181.00
2023-06-27T00:57:28.273Z,95183.00
2023-06-27T00:58:28.314Z,95179.00
2023-06-27T00:59:28.367Z,95181.00
2023-06-27T01:00:28.436Z,95179.00
2023-06-27T01:01:28.434Z,95179.00
2023-06-27T01:02:28.574Z,95183.00
2023-06-27T01:03:28.525Z,95179.00
2023-06-27T01:04:28.582Z,95181.00
2023-06-27T01:05:28.468Z,95183.00
2023-06-27T01:06:28.505Z,95181.00
2023-06-27T01:07:28.553Z,95177.00
2023-06-27T01:08:28.522Z,95177.00
2023-06-27T01:09:28.550Z,95175.00
2023-06-27T01:10:28.572Z,95175.00
2023-06-27T01:11:28.575Z,95175.00
2023-06-27T01:12:28.623Z,95173.00
2023-06-27T01:13:28.624Z,95173.00
2023-06-27T01:14:28.634Z,95173.00
2023-06-27T01:15:28.681Z,95173.00
2023-06-27T01:16:28.697Z,95173.00
2023-06-27T01:17:28.790Z,95175.00
2023-06-27T01:18:28.772Z,95173.00
2023-06-27T01:19:28.770Z,95173.00
2023-06-27T01:20:28.813Z,95175.00
2023-06-27T01:21:28.837Z,95171.00
2023-06-27T01:22:28.867Z,95173.00
2023-06-27T01:23:28.920Z,95173.00
2023-06-27T01:24:28.933Z,95171.00
2023-06-27T01:25:29.955Z,95171.00
2023-06-27T01:26:29.021Z,95167.00
2023-06-27T01:27:29.036Z,95169.00
2023-06-27T01:28:29.094Z,95169.00
2023-06-27T01:29:29.083Z,95167.00
2023-06-27T01:30:29.159Z,95171.00
2023-06-27T01:31:29.232Z,95171.00
2023-06-27T01:32:29.236Z,95171.00
2023-06-27T01:33:29.188Z,95171.00
2023-06-27T01:34:29.202Z,95169.00
2023-06-27T01:35:29.267Z,95169.00
2023-06-27T01:36:29.296Z,95169.00
2023-06-27T01:37:29.338Z,95171.00
2023-06-27T01:38:29.281Z,95169.00
2023-06-27T01:39:29.378Z,95167.00
2023-06-27T01:40:29.410Z,95165.00
2023-06-27T01:41:31.959Z,95167.00
2023-06-27T01:42:29.523Z,95167.00
2023-06-27T01:43:29.578Z,95169.00
2023-06-27T01:44:29.603Z,95169.00
2023-06-27T01:45:29.608Z,95169.00
2023-06-27T01:46:29.689Z,95169.00
2023-06-27T01:47:29.705Z,95169.00
2023-06-27T01:48:29.667Z,95167.00
2023-06-27T01:49:29.710Z,95167.00
2023-06-27T01:50:29.725Z,95167.00
2023-06-27T01:51:30.404Z,95167.00
2023-06-27T01:52:29.841Z,95167.00
2023-06-27T01:53:29.892Z,95167.00
2023-06-27T01:54:29.856Z,95167.00
2023-06-27T01:55:29.920Z,95167.00
2023-06-27T01:56:29.975Z,95169.00
2023-06-27T01:57:29.977Z,95169.00
2023-06-27T01:58:29.947Z,95165.00
2023-06-27T01:59:29.994Z,95165.00
2023-06-27T02:00:30.053Z,95165.00
2023-06-27T02:01:30.082Z,95161.00
2023-06-27T02:02:30.208Z,95161.00
2023-06-27T02:03:30.149Z,95159.00
2023-06-27T02:04:30.185Z,95159.00
2023-06-27T02:05:30.171Z,95157.00
2023-06-27T02:06:30.249Z,95157.00
2023-06-27T02:07:30.321Z,95157.00
2023-06-27T02:08:30.324Z,95157.00
2023-06-27T02:09:30.314Z,95161.00
2023-06-27T02:10:30.388Z,95163.00
2023-06-27T02:11:30.337Z,95163.00
2023-06-27T02:12:30.397Z,95165.00
2023-06-27T02:13:30.400Z,95167.00
2023-06-27T02:14:30.407Z,95163.00
2023-06-27T02:15:30.454Z,95165.00
2023-06-27T02:16:30.429Z,95165.00
2023-06-27T02:17:30.522Z,95165.00
2023-06-27T02:18:30.547Z,95167.00
2023-06-27T02:19:30.493Z,95169.00
2023-06-27T02:20:30.549Z,95171.00
2023-06-27T02:21:30.553Z,95171.00
2023-06-27T02:22:30.590Z,95173.00
2023-06-27T02:23:30.605Z,95171.00
2023-06-27T02:24:30.630Z,95169.00
2023-06-27T02:25:30.653Z,95169.00
2023-06-27T02:26:30.702Z,95165.00
2023-06-27T02:27:30.661Z,95165.00
2023-06-27T02:28:30.712Z,95163.00
2023-06-27T02:29:30.740Z,95167.00
2023-06-27T02:30:30.797Z,95163.00
2023-06-27T02:31:30.881Z,95165.00
2023-06-27T02:32:30.905Z,95165.00
2023-06-27T02:33:30.870Z,95165.00
2023-06-27T02:34:30.891Z,95165.00
2023-06-27T02:35:30.892Z,95165.00
2023-06-27T02:36:33.438Z,95165.00
2023-06-27T02:37:31.016Z,95163.00
2023-06-27T02:38:31.092Z,95165.00
2023-06-27T02:39:31.925Z,95163.00
2023-06-27T02:40:31.098Z,95161.00
2023-06-27T02:41:31.143Z,95159.00
2023-06-27T02:42:31.176Z,95159.00
2023-06-27T02:43:31.237Z,95161.00
2023-06-27T02:44:31.246Z,95161.00
2023-06-27T02:45:31.304Z,95163.00
2023-06-27T02:46:31.384Z,95163.00
2023-06-27T02:47:31.361Z,95167.00
2023-06-27T02:48:31.374Z,95171.00
2023-06-27T02:49:31.403Z,95173.00
2023-06-27T02:50:31.442Z,95171.00
2023-06-27T02:51:31.441Z,95173.00
2023-06-27T02:52:31.456Z,95173.00
2023-06-27T02:53:31.510Z,95173.00
2023-06-27T02:54:31.500Z,95171.00
2023-06-27T02:55:31.513Z,95173.00
2023-06-27T02:56:31.564Z,95173.00
2023-06-27T02:57:31.576Z,95173.00
2023-06-27T02:58:31.947Z,95177.00
2023-06-27T02:59:31.694Z,95177.00
2023-06-27T03:00:31.707Z,95171.00
2023-06-27T03:01:31.748Z,95173.00
2023-06-27T03:02:31.806Z,95175.00
2023-06-27T03:03:34.517Z,95173.00
2023-06-27T03:04:31.863Z,95175.00
2023-06-27T03:05:31.795Z,95179.00
2023-06-27T03:06:31.758Z,95179.00
2023-06-27T03:07:31.819Z,95181.00
2023-06-27T03:08:31.754Z,95183.00
2023-06-27T03:09:31.724Z,95187.00
2023-06-27T03:10:31.729Z,95187.00
2023-06-27T03:11:31.686Z,95187.00
2023-06-27T03:12:31.707Z,95191.00
2023-06-27T03:13:31.940Z,95191.00
2023-06-27T03:14:31.708Z,95191.00
2023-06-27T03:15:31.698Z,95191.00
2023-06-27T03:16:31.703Z,95191.00
2023-06-27T03:17:31.699Z,95193.00
2023-06-27T03:18:31.646Z,95191.00
2023-06-27T03:19:43.889Z,95187.00
2023-06-27T03:20:32.718Z,95187.00
2023-06-27T03:21:31.658Z,95185.00
2023-06-27T03:22:31.632Z,95185.00
2023-06-27T03:23:31.636Z,95183.00
2023-06-27T03:24:31.627Z,95183.00
2023-06-27T03:25:31.695Z,95183.00
2023-06-27T03:26:31.608Z,95183.00
2023-06-27T03:27:31.603Z,95183.00
2023-06-27T03:28:31.983Z,95185.00
2023-06-27T03:29:31.658Z,95185.00
2023-06-27T03:30:31.614Z,95181.00
2023-06-27T03:31:31.662Z,95181.00
2023-06-27T03:32:31.585Z,95181.00
2023-06-27T03:33:32.011Z,95183.00
2023-06-27T03:34:31.558Z,95183.00
2023-06-27T03:35:31.568Z,95187.00
2023-06-27T03:36:31.529Z,95187.00
2023-06-27T03:37:31.550Z,95189.00
2023-06-27T03:38:31.513Z,95189.00
2023-06-27T03:39:31.548Z,95191.00
2023-06-27T03:40:31.515Z,95189.00
2023-06-27T03:41:31.490Z,95185.00
2023-06-27T03:42:31.508Z,95185.00
2023-06-27T03:43:31.521Z,95185.00
2023-06-27T03:44:31.505Z,95185.00
2023-06-27T03:45:31.505Z,95183.00
2023-06-27T03:46:31.501Z,95185.00
2023-06-27T03:47:31.563Z,95187.00
2023-06-27T03:48:31.529Z,95183.00
2023-06-27T03:49:31.527Z,95183.00
2023-06-27T03:50:31.455Z,95183.00
2023-06-27T03:51:31.469Z,95185.00
2023-06-27T03:52:31.497Z,95187.00
2023-06-27T03:53:31.470Z,95193.00
2023-06-27T03:54:31.478Z,95191.00
2023-06-27T03:55:31.478Z,95196.00
2023-06-27T03:56:31.481Z,95196.00
2023-06-27T03:57:31.491Z,95200.00
2023-06-27T03:58:31.502Z,95202.00
2023-06-27T03:59:31.530Z,95202.00
2023-06-27T04:00:31.533Z,95202.00
2023-06-27T04:01:31.511Z,95204.00
2023-06-27T04:02:31.553Z,95202.00
2023-06-27T04:03:31.666Z,95202.00
2023-06-27T04:04:31.672Z,95200.00
2023-06-27T04:05:31.567Z,95204.00
2023-06-27T04:06:31.531Z,95204.00
2023-06-27T04:07:31.612Z,95208.00
2023-06-27T04:08:31.533Z,95210.00
2023-06-27T04:09:31.590Z,95210.00
2023-06-27T04:10:31.587Z,95212.00
2023-06-27T04:11:31.641Z,95210.00
2023-06-27T04:12:31.630Z,95210.00
2023-06-27T04:13:32.017Z,95212.00
2023-06-27T04:14:31.690Z,95212.00
2023-06-27T04:15:31.760Z,95212.00
2023-06-27T04:16:31.697Z,95214.00
2023-06-27T04:17:31.924Z,95214.00
2023-06-27T04:18:32.029Z,95214.00
2023-06-27T04:19:31.765Z,95214.00
2023-06-27T04:20:31.760Z,95214.00
2023-06-27T04:21:31.790Z,95216.00
2023-06-27T04:22:31.855Z,95216.00
2023-06-27T04:23:32.059Z,95222.00
2023-06-27T04:24:31.843Z,95220.00
2023-06-27T04:25:31.896Z,95220.00
2023-06-27T04:26:31.897Z,95222.00
2023-06-27T04:27:31.907Z,95226.00
2023-06-27T04:28:32.024Z,95228.00
2023-06-27T04:29:31.904Z,95232.00
2023-06-27T04:30:31.894Z,95230.00
2023-06-27T04:31:31.936Z,95232.00
2023-06-27T04:32:32.032Z,95236.00
2023-06-27T04:33:32.009Z,95232.00
2023-06-27T04:34:31.922Z,95234.00
2023-06-27T04:35:31.957Z,95236.00
2023-06-27T04:36:31.943Z,95234.00
2023-06-27T04:37:31.974Z,95234.00
2023-06-27T04:38:32.021Z,95234.00
2023-06-27T04:39:31.929Z,95238.00
2023-06-27T04:40:31.969Z,95238.00
2023-06-27T04:41:31.927Z,95238.00
2023-06-27T04:42:31.907Z,95236.00
2023-06-27T04:43:32.017Z,95232.00
2023-06-27T04:44:31.928Z,95238.00
2023-06-27T04:45:31.890Z,95234.00
2023-06-27T04:46:31.924Z,95240.00
2023-06-27T04:47:31.957Z,95240.00
2023-06-27T04:48:31.943Z,95244.00
2023-06-27T04:49:31.915Z,95245.00
2023-06-27T04:50:31.934Z,95245.00
2023-06-27T04:51:31.911Z,95245.00
2023-06-27T04:52:31.903Z,95242.00
2023-06-27T04:53:32.023Z,95244.00
2023-06-27T04:54:31.949Z,95240.00
2023-06-27T04:55:31.965Z,95238.00
2023-06-27T04:56:31.964Z,95242.00
2023-06-27T04:57:31.995Z,95244.00
2023-06-27T04:58:32.037Z,95244.00
2023-06-27T04:59:31.994Z,95245.00
2023-06-27T05:00:32.024Z,95245.00
2023-06-27T05:01:32.620Z,95245.00
2023-06-27T05:02:32.092Z,95247.00
2023-06-27T05:03:31.970Z,95244.00
2023-06-27T05:04:32.047Z,95245.00
2023-06-27T05:05:31.953Z,95247.00
2023-06-27T05:06:31.983Z,95245.00
2023-06-27T05:07:32.002Z,95247.00
2023-06-27T05:08:31.993Z,95247.00
2023-06-27T05:09:31.992Z,95251.00
2023-06-27T05:10:32.018Z,95251.00
2023-06-27T05:11:32.012Z,95253.00
2023-06-27T05:12:32.039Z,95255.00
2023-06-27T05:13:32.033Z,95251.00
2023-06-27T05:14:32.052Z,95255.00
2023-06-27T05:15:32.066Z,95257.00
2023-06-27T05:16:32.086Z,95259.00
2023-06-27T05:17:32.137Z,95253.00
2023-06-27T05:18:32.126Z,95255.00
2023-06-27T05:19:32.194Z,95257.00
2023-06-27T05:20:32.192Z,95255.00
2023-06-27T05:21:32.257Z,95257.00
2023-06-27T05:22:32.264Z,95261.00
2023-06-27T05:23:32.282Z,95261.00
2023-06-27T05:24:32.318Z,95263.00
2023-06-27T05:25:32.340Z,95263.00
2023-06-27T05:26:32.387Z,95265.00
2023-06-27T05:27:32.397Z,95271.00
2023-06-27T05:28:32.442Z,95273.00
2023-06-27T05:29:32.447Z,95277.00
2023-06-27T05:30:32.503Z,95275.00
2023-06-27T05:31:32.500Z,95271.00
2023-06-27T05:32:32.603Z,95273.00
2023-06-27T05:33:32.596Z,95275.00
2023-06-27T05:34:32.612Z,95273.00
2023-06-27T05:35:32.666Z,95271.00
2023-06-27T05:36:32.701Z,95271.00
2023-06-27T05:37:32.735Z,95275.00
2023-06-27T05:38:32.803Z,95277.00
2023-06-27T05:39:32.811Z,95277.00
2023-06-27T05:40:32.841Z,95281.00
2023-06-27T05:41:32.841Z,95283.00
2023-06-27T05:42:32.889Z,95283.00
2023-06-27T05:43:32.933Z,95285.00
2023-06-27T05:44:32.984Z,95283.00
2023-06-27T05:45:32.998Z,95285.00
2023-06-27T05:46:33.042Z,95287.00
2023-06-27T05:47:33.100Z,95289.00
2023-06-27T05:48:33.110Z,95287.00
2023-06-27T05:49:34.034Z,95289.00
2023-06-27T05:50:33.191Z,95291.00
2023-06-27T05:51:33.234Z,95291.00
2023-06-27T05:52:34.093Z,95287.00
2023-06-27T05:53:33.324Z,95287.00
2023-06-27T05:54:33.361Z,95285.00
2023-06-27T05:55:33.375Z,95289.00
2023-06-27T05:56:33.441Z,95287.00
2023-06-27T05:57:33.473Z,95289.00
2023-06-27T05:58:33.509Z,95283.00
2023-06-27T05:59:33.572Z,95285.00
2023-06-27T06:00:33.605Z,95287.00
2023-06-27T06:01:33.724Z,95285.00
2023-06-27T06:02:33.795Z,95283.00
2023-06-27T06:03:33.826Z,95285.00
2023-06-27T06:04:33.765Z,95291.00
2023-06-27T06:05:33.801Z,95293.00
2023-06-27T06:06:33.847Z,95295.00
2023-06-27T06:07:33.944Z,95298.00
2023-06-27T06:08:33.939Z,95300.00
2023-06-27T06:09:33.972Z,95300.00
2023-06-27T06:10:34.177Z,95304.00
2023-06-27T06:11:34.118Z,95306.00
2023-06-27T06:12:34.106Z,95306.00
2023-06-27T06:13:34.195Z,95310.00
2023-06-27T06:14:34.229Z,95308.00
2023-06-27T06:15:34.262Z,95308.00
2023-06-27T06:16:34.335Z,95310.00
2023-06-27T06:17:35.086Z,95310.00
2023-06-27T06:18:34.454Z,95314.00
2023-06-27T06:19:34.484Z,95314.00
2023-06-27T06:20:34.548Z,95314.00
2023-06-27T06:21:34.650Z,95318.00
2023-06-27T06:22:34.688Z,95316.00
2023-06-27T06:23:34.710Z,95318.00
2023-06-27T06:24:34.750Z,95318.00
2023-06-27T06:25:34.807Z,95320.00
2023-06-27T06:26:34.873Z,95322.00
2023-06-27T06:27:34.902Z,95322.00
2023-06-27T06:28:34.991Z,95320.00
2023-06-27T06:29:35.016Z,95324.00
2023-06-27T06:30:35.105Z,95322.00
2023-06-27T06:31:35.210Z,95320.00
2023-06-27T06:32:36.153Z,95324.00
2023-06-27T06:33:35.254Z,95322.00
2023-06-27T06:34:35.297Z,95322.00
2023-06-27T06:35:35.370Z,95322.00
2023-06-27T06:36:35.420Z,95324.00
2023-06-27T06:37:35.542Z,95322.00
2023-06-27T06:38:35.597Z,95324.00
2023-06-27T06:39:35.608Z,95320.00
2023-06-27T06:40:35.643Z,95322.00
2023-06-27T06:41:35.721Z,95326.00
2023-06-27T06:42:35.779Z,95320.00
2023-06-27T06:43:35.860Z,95322.00
2023-06-27T06:44:35.880Z,95322.00
2023-06-27T06:45:35.965Z,95324.00
2023-06-27T06:46:36.036Z,95328.00
2023-06-27T06:47:36.165Z,95330.00
2023-06-27T06:48:37.072Z,95328.00
2023-06-27T06:49:36.054Z,95330.00
2023-06-27T06:50:36.019Z,95336.00
2023-06-27T06:51:36.076Z,95340.00
2023-06-27T06:52:36.122Z,95342.00
2023-06-27T06:53:36.020Z,95338.00
2023-06-27T06:54:36.130Z,95336.00
2023-06-27T06:55:36.004Z,95334.00
2023-06-27T06:56:36.031Z,95330.00
2023-06-27T06:57:36.067Z,95340.00
2023-06-27T06:58:36.559Z,95336.00
2023-06-27T06:59:36.186Z,95336.00
2023-06-27T07:00:36.265Z,95338.00
2023-06-27T07:01:36.425Z,95340.00
2023-06-27T07:02:36.367Z,95349.00
2023-06-27T07:03:36.437Z,95342.00
2023-06-27T07:04:36.505Z,95342.00
2023-06-27T07:05:36.445Z,95347.00
2023-06-27T07:06:36.429Z,95343.00
2023-06-27T07:07:36.498Z,95343.00
2023-06-27T07:08:36.498Z,95340.00
2023-06-27T07:09:36.466Z,95345.00
2023-06-27T07:10:36.457Z,95340.00
2023-06-27T07:11:36.446Z,95338.00
2023-06-27T07:12:36.476Z,95338.00
2023-06-27T07:13:36.465Z,95340.00
2023-06-27T07:14:36.482Z,95347.00
2023-06-27T07:15:36.539Z,95342.00
2023-06-27T07:16:36.551Z,95336.00
2023-06-27T07:17:36.644Z,95338.00
2023-06-27T07:18:36.638Z,95343.00
2023-06-27T07:19:36.677Z,95347.00
2023-06-27T07:20:36.712Z,95340.00
2023-06-27T07:21:36.788Z,95340.00
2023-06-27T07:22:36.891Z,95340.00
2023-06-27T07:23:36.947Z,95347.00
2023-06-27T07:24:36.934Z,95351.00
2023-06-27T07:25:36.985Z,95334.00
2023-06-27T07:26:37.013Z,95343.00
2023-06-27T07:27:37.096Z,95343.00
2023-06-27T07:28:37.161Z,95347.00
2023-06-27T07:29:38.144Z,95345.00
2023-06-27T07:30:37.282Z,95343.00
2023-06-27T07:31:37.516Z,95347.00
2023-06-27T07:32:37.472Z,95355.00
2023-06-27T07:33:37.422Z,95359.00
2023-06-27T07:34:37.510Z,95353.00
2023-06-27T07:35:37.518Z,95347.00
2023-06-27T07:36:37.585Z,95353.00
2023-06-27T07:37:37.663Z,95338.00
2023-06-27T07:38:37.700Z,95336.00
2023-06-27T07:39:37.751Z,95332.00
2023-06-27T07:40:37.853Z,95334.00
2023-06-27T07:41:37.930Z,95340.00
2023-06-27T07:42:37.965Z,95338.00
2023-06-27T07:43:38.014Z,95338.00
2023-06-27T07:44:38.054Z,95338.00
2023-06-27T07:45:38.092Z,95336.00
2023-06-27T07:46:38.154Z,95334.00
2023-06-27T07:47:38.181Z,95334.00
2023-06-27T07:48:38.257Z,95332.00
2023-06-27T07:49:38.250Z,95324.00
2023-06-27T07:50:38.512Z,95326.00
2023-06-27T07:51:38.345Z,95326.00
2023-06-27T07:52:38.398Z,95332.00
2023-06-27T07:53:38.415Z,95332.00
2023-06-27T07:54:38.428Z,95330.00
2023-06-27T07:55:38.480Z,95332.00
2023-06-27T07:56:38.480Z,95326.00
2023-06-27T07:57:38.492Z,95334.00
2023-06-27T07:58:38.547Z,95330.00
2023-06-27T07:59:38.582Z,95332.00
2023-06-27T08:00:38.798Z,95330.00
2023-06-27T08:01:39.590Z,95330.00
2023-06-27T08:02:38.644Z,95330.00
2023-06-27T08:03:38.614Z,95328.00
2023-06-27T08:04:38.551Z,95326.00
2023-06-27T08:05:38.563Z,95322.00
2023-06-27T08:06:38.543Z,95330.00
2023-06-27T08:07:38.603Z,95326.00
2023-06-27T08:08:38.539Z,95324.00
2023-06-27T08:09:38.540Z,95322.00
2023-06-27T08:10:38.879Z,95324.00
2023-06-27T08:11:38.620Z,95324.00
2023-06-27T08:12:38.575Z,95318.00
2023-06-27T08:13:38.488Z,95316.00
2023-06-27T08:14:38.475Z,95318.00
2023-06-27T08:15:38.478Z,95314.00
2023-06-27T08:16:38.459Z,95314.00
2023-06-27T08:17:38.534Z,95314.00
2023-06-27T08:18:38.493Z,95310.00
2023-06-27T08:19:38.485Z,95312.00
2023-06-27T08:20:38.686Z,95308.00
2023-06-27T08:21:38.481Z,95306.00
2023-06-27T08:22:38.515Z,95308.00
2023-06-27T08:23:39.457Z,95312.00
2023-06-27T08:24:38.620Z,95310.00
2023-06-27T08:25:39.034Z,95308.00
2023-06-27T08:26:38.634Z,95308.00
2023-06-27T08:27:38.646Z,95310.00
2023-06-27T08:28:38.687Z,95306.00
2023-06-27T08:29:38.699Z,95304.00
2023-06-27T08:30:38.944Z,95306.00
2023-06-27T08:31:38.711Z,95302.00
2023-06-27T08:32:38.722Z,95300.00
2023-06-27T08:33:38.716Z,95298.00
2023-06-27T08:34:38.728Z,95298.00
2023-06-27T08:35:38.724Z,95298.00
2023-06-27T08:36:38.783Z,95302.00
2023-06-27T08:37:38.770Z,95300.00
2023-06-27T08:38:38.811Z,95300.00
2023-06-27T08:39:38.792Z,95298.00
2023-06-27T08:40:39.140Z,95298.00
2023-06-27T08:41:38.816Z,95296.00
2023-06-27T08:42:38.816Z,95289.00
2023-06-27T08:43:38.844Z,95291.00
2023-06-27T08:44:38.858Z,95291.00
2023-06-27T08:45:38.822Z,95291.00
2023-06-27T08:46:38.867Z,95287.00
2023-06-27T08:47:38.871Z,95289.00
2023-06-27T08:48:38.862Z,95287.00
2023-06-27T08:49:38.860Z,95287.00
2023-06-27T08:50:39.421Z,95289.00
2023-06-27T08:51:39.259Z,95298.00
2023-06-27T08:52:38.865Z,95304.00
2023-06-27T08:53:38.863Z,95296.00
2023-06-27T08:54:38.859Z,95293.00
2023-06-27T08:55:38.880Z,95281.00
2023-06-27T08:56:38.893Z,95295.00
2023-06-27T08:57:38.893Z,95287.00
2023-06-27T08:58:38.862Z,95293.00
2023-06-27T08:59:38.942Z,95287.00
2023-06-27T09:00:39.433Z,95289.00
2023-06-27T09:01:38.914Z,95289.00
2023-06-27T09:02:38.967Z,95285.00
2023-06-27T09:03:38.989Z,95291.00
2023-06-27T09:04:38.909Z,95289.00
2023-06-27T09:05:40.567Z,95287.00
2023-06-27T09:06:38.880Z,95293.00
2023-06-27T09:07:38.914Z,95287.00
2023-06-27T09:08:38.908Z,95287.00
2023-06-27T09:09:38.877Z,95285.00
2023-06-27T09:10:39.065Z,95287.00
2023-06-27T09:11:38.871Z,95287.00
2023-06-27T09:12:38.835Z,95287.00
2023-06-27T09:13:38.938Z,95285.00
2023-06-27T09:14:38.838Z,95287.00
2023-06-27T09:15:39.026Z,95283.00
2023-06-27T09:16:39.134Z,95285.00
2023-06-27T09:17:38.852Z,95283.00
2023-06-27T09:18:38.803Z,95285.00
2023-06-27T09:19:38.803Z,95283.00
2023-06-27T09:20:39.028Z,95279.00
2023-06-27T09:21:38.786Z,95277.00
2023-06-27T09:22:40.177Z,95281.00
2023-06-27T09:23:38.963Z,95279.00
2023-06-27T09:24:38.942Z,95281.00
2023-06-27T09:25:39.332Z,95279.00
2023-06-27T09:26:38.942Z,95283.00
2023-06-27T09:27:38.940Z,95281.00
2023-06-27T09:28:38.947Z,95283.00
2023-06-27T09:29:40.743Z,95285.00
2023-06-27T09:30:39.131Z,95283.00
2023-06-27T09:31:38.977Z,95281.00
2023-06-27T09:32:39.085Z,95281.00
2023-06-27T09:33:42.966Z,95279.00
2023-06-27T09:34:38.956Z,95281.00
2023-06-27T09:39:38.907Z,95277.00
2023-06-27T09:40:38.889Z,95275.00
2023-06-27T09:41:38.870Z,95273.00
2023-06-27T09:42:38.889Z,95279.00
2023-06-27T09:43:38.849Z,95277.00
2023-06-27T09:44:38.872Z,95279.00
2023-06-27T09:45:39.174Z,95281.00
2023-06-27T09:46:38.859Z,95277.00
2023-06-27T09:47:38.857Z,95279.00
2023-06-27T09:48:38.815Z,95273.00
2023-06-27T09:49:38.831Z,95275.00
2023-06-27T09:50:39.628Z,95273.00
2023-06-27T09:51:38.839Z,95273.00
2023-06-27T09:52:38.802Z,95273.00
2023-06-27T09:53:38.794Z,95273.00
2023-06-27T09:54:38.788Z,95273.00
2023-06-27T09:55:39.072Z,95269.00
2023-06-27T09:56:38.763Z,95275.00
2023-06-27T09:57:38.794Z,95275.00
2023-06-27T09:58:38.773Z,95269.00
2023-06-27T09:59:38.777Z,95271.00
2023-06-27T10:00:38.752Z,95273.00
2023-06-27T10:01:38.771Z,95271.00
2023-06-27T10:02:38.789Z,95269.00
2023-06-27T10:03:39.188Z,95271.00
2023-06-27T10:04:40.560Z,95275.00
2023-06-27T10:05:43.118Z,95273.00
2023-06-27T10:06:39.757Z,95271.00
2023-06-27T10:07:38.807Z,95273.00
2023-06-27T10:08:38.683Z,95273.00
2023-06-27T10:09:38.693Z,95271.00
2023-06-27T10:10:38.697Z,95269.00
2023-06-27T10:11:38.674Z,95265.00
2023-06-27T10:12:38.690Z,95265.00
2023-06-27T10:13:38.695Z,95269.00
2023-06-27T10:14:38.709Z,95265.00
2023-06-27T10:15:38.862Z,95265.00
2023-06-27T10:16:38.666Z,95271.00
2023-06-27T10:17:38.674Z,95267.00
2023-06-27T10:18:38.613Z,95269.00
2023-06-27T10:19:38.646Z,95273.00
2023-06-27T10:20:38.719Z,95269.00
2023-06-27T10:21:38.642Z,95271.00
2023-06-27T10:22:38.616Z,95271.00
2023-06-27T10:23:38.622Z,95271.00
2023-06-27T10:24:40.287Z,95273.00
2023-06-27T10:25:38.678Z,95271.00
2023-06-27T10:26:39.650Z,95271.00
2023-06-27T10:27:38.650Z,95269.00
2023-06-27T10:28:38.607Z,95271.00
2023-06-27T10:29:38.628Z,95267.00
2023-06-27T10:30:38.639Z,95269.00
2023-06-27T10:31:38.696Z,95271.00
2023-06-27T10:32:38.591Z,95269.00
2023-06-27T10:33:38.591Z,95271.00
2023-06-27T10:34:38.570Z,95273.00
2023-06-27T10:35:38.580Z,95273.00
2023-06-27T10:36:38.654Z,95271.00
2023-06-27T10:37:38.550Z,95273.00
2023-06-27T10:38:38.570Z,95269.00
2023-06-27T10:39:38.566Z,95267.00
2023-06-27T10:40:38.559Z,95267.00
2023-06-27T10:41:38.546Z,95261.00
2023-06-27T10:42:38.592Z,95263.00
2023-06-27T10:43:38.600Z,95263.00
2023-06-27T10:44:38.606Z,95257.00
2023-06-27T10:45:39.326Z,95261.00
2023-06-27T10:46:38.736Z,95261.00
2023-06-27T10:47:38.772Z,95259.00
2023-06-27T10:48:38.698Z,95261.00
2023-06-27T10:49:38.756Z,95255.00
2023-06-27T10:50:38.837Z,95259.00
2023-06-27T10:51:38.788Z,95257.00
2023-06-27T10:52:38.832Z,95255.00
2023-06-27T10:53:38.822Z,95257.00
2023-06-27T10:54:38.880Z,95257.00
2023-06-27T10:55:38.985Z,95257.00
2023-06-27T10:56:38.899Z,95255.00
2023-06-27T10:57:38.962Z,95255.00
2023-06-27T10:58:38.963Z,95253.00
2023-06-27T10:59:39.009Z,95249.00
2023-06-27T11:00:39.022Z,95249.00
2023-06-27T11:01:39.143Z,95249.00
2023-06-27T11:02:39.349Z,95247.00
2023-06-27T11:03:39.335Z,95242.00
2023-06-27T11:04:39.327Z,95244.00
2023-06-27T11:05:39.159Z,95242.00
2023-06-27T11:06:39.200Z,95244.00
2023-06-27T11:07:39.300Z,95244.00
2023-06-27T11:08:39.324Z,95242.00
2023-06-27T11:09:39.294Z,95244.00
2023-06-27T11:10:39.403Z,95242.00
2023-06-27T11:11:39.384Z,95242.00
2023-06-27T11:12:39.385Z,95240.00
2023-06-27T11:13:39.431Z,95238.00
2023-06-27T11:14:39.463Z,95234.00
2023-06-27T11:15:40.924Z,95230.00
2023-06-27T11:16:40.214Z,95228.00
2023-06-27T11:17:39.561Z,95224.00
2023-06-27T11:18:39.521Z,95218.00
2023-06-27T11:19:39.592Z,95216.00
2023-06-27T11:20:39.771Z,95216.00
2023-06-27T11:21:39.659Z,95212.00
2023-06-27T11:22:39.636Z,95210.00
2023-06-27T11:23:39.674Z,95206.00
2023-06-27T11:24:39.775Z,95204.00
2023-06-27T11:25:39.678Z,95202.00
2023-06-27T11:26:39.748Z,95202.00
2023-06-27T11:27:39.803Z,95202.00
2023-06-27T11:28:39.814Z,95202.00
2023-06-27T11:29:39.856Z,95206.00
2023-06-27T11:30:40.149Z,95200.00
2023-06-27T11:31:39.913Z,95202.00
2023-06-27T11:32:39.926Z,95204.00
2023-06-27T11:33:39.934Z,95206.00
2023-06-27T11:34:39.993Z,95208.00
2023-06-27T11:35:41.052Z,95204.00
2023-06-27T11:36:40.040Z,95202.00
2023-06-27T11:37:40.114Z,95204.00
2023-06-27T11:38:40.163Z,95202.00
2023-06-27T11:39:40.201Z,95202.00
2023-06-27T11:40:40.377Z,95200.00
2023-06-27T11:41:40.202Z,95191.00
2023-06-27T11:42:40.251Z,95189.00
2023-06-27T11:43:40.256Z,95187.00
2023-06-27T11:44:40.292Z,95183.00
2023-06-27T11:45:40.342Z,95187.00
2023-06-27T11:46:40.353Z,95185.00
2023-06-27T11:47:40.420Z,95185.00
2023-06-27T11:48:40.421Z,95183.00